Welcome to Northern Hawkes Bay. New Zealand.
PWS Header
      nz Flag



Hit Counter


W3C Valid W3C Valid logo


    Wairoa

Select any of the Stations below to visit their websites.










Historic Data from Weather Underground
Select the location of interest below. Wairoa is the default. Please have patience, this Data is slow to load in.
Northern Hawkes Bay Historical Data
Daily Summary for July 13, 2017 Units:  English    Metric   Both
« Previous Day
Next Day »
Daily Weekly Monthly Yearly Custom
  High: Low: Average:
Temperature: 53.2 °F 41 °F 45.1 °F
Dew Point: 45.7 °F 34 °F 39.9 °F
Humidity: 97% 65% 82%
Wind Speed: 15.9mph 0mph 4.8mph
Wind Gust: 25.9mph - -
Wind- - WSW
Pressure: 29.8 in 29.6 in -
Precipitation: 0.58 in    
Historical Graphs
 
 
Tabular Data for July 13, 2017
Time Temperature Dew Point Pressure Wind Wind Speed Wind Gust Humidity Rainfall Rate (Hourly) solar
00:04 45.5 °F 37 °F 29.7 in West 10.7 mph 18.3 mph 72% 0 in 0 W/m2
00:09 45.7 °F 37.2 °F 29.7 in West 6.9 mph 16.8 mph 72% 0 in 0 W/m2
00:14 45.7 °F 36.9 °F 29.7 in West 14.5 mph 19.7 mph 71% 0 in 0 W/m2
00:19 45.7 °F 36.9 °F 29.7 in West 13.6 mph 24.4 mph 71% 0 in 0 W/m2
00:24 45.7 °F 37.2 °F 29.7 in West 9.8 mph 25.9 mph 72% 0 in 0 W/m2
00:29 45.7 °F 37.2 °F 29.7 in WSW 11.4 mph 25.9 mph 72% 0 in 0 W/m2
00:34 45.9 °F 37.4 °F 29.7 in WSW 12.1 mph 22.1 mph 72% 0 in 0 W/m2
00:39 45.9 °F 37.4 °F 29.7 in WSW 13.6 mph 22.1 mph 72% 0 in 0 W/m2
00:44 45.7 °F 37.2 °F 29.7 in WSW 10.7 mph 21.3 mph 72% 0 in 0 W/m2
00:49 45.9 °F 37.4 °F 29.7 in West 6.9 mph 25.9 mph 72% 0 in 0 W/m2
00:51 45.9 °F 37.4 °F 29.7 in West 9.2 mph 25.9 mph 72% 0 in 0 W/m2
00:56 46 °F 37.9 °F 29.7 in West 13 mph 25.9 mph 73% 0 in 0 W/m2
01:01 46 °F 37.6 °F 29.7 in WSW 12.1 mph 22.1 mph 72% 0 in 0 W/m2
01:06 45.9 °F 37.4 °F 29.7 in WSW 9.8 mph 19 mph 72% 0 in 0 W/m2
01:11 45.7 °F 36.9 °F 29.7 in WSW 9.2 mph 19 mph 71% 0 in 0 W/m2
01:16 45.9 °F 37 °F 29.7 in WSW 13.6 mph 22.8 mph 71% 0 in 0 W/m2
01:21 45.9 °F 36.7 °F 29.7 in WSW 13.6 mph 22.8 mph 70% 0 in 0 W/m2
01:26 45.9 °F 36.3 °F 29.7 in WSW 5.4 mph 18.3 mph 69% 0 in 0 W/m2
01:31 45.7 °F 36.5 °F 29.7 in WSW 9.8 mph 17.4 mph 70% 0 in 0 W/m2
01:36 45.7 °F 36.5 °F 29.7 in West 5.4 mph 16.8 mph 70% 0 in 0 W/m2
01:41 45.5 °F 36.3 °F 29.7 in West 5.4 mph 16.8 mph 70% 0 in 0 W/m2
01:46 45.5 °F 36.3 °F 29.7 in WSW 2.2 mph 15.2 mph 70% 0 in 0 W/m2
01:51 45.3 °F 35.8 °F 29.7 in West 6.9 mph 16.8 mph 69% 0 in 0 W/m2
01:56 45.7 °F 35.8 °F 29.7 in West 5.4 mph 19 mph 68% 0 in 0 W/m2
02:01 45.7 °F 35.8 °F 29.7 in WNW 3.8 mph 19 mph 68% 0 in 0 W/m2
02:06 45.5 °F 35.6 °F 29.7 in West 3.8 mph 13.6 mph 68% 0 in 0 W/m2
02:11 45.5 °F 35.2 °F 29.7 in West 2.2 mph 10.7 mph 67% 0 in 0 W/m2
02:16 45.3 °F 35.4 °F 29.7 in WNW 4.5 mph 10.7 mph 68% 0 in 0 W/m2
02:21 44.6 °F 35.1 °F 29.7 in NW 3.8 mph 6.9 mph 69% 0 in 0 W/m2
02:26 44.4 °F 35.6 °F 29.7 in NW 3.1 mph 6 mph 71% 0 in 0 W/m2
02:31 44.2 °F 35.4 °F 29.7 in NNW 6 mph 7.6 mph 71% 0 in 0 W/m2
02:36 44.1 °F 35.6 °F 29.7 in NW 3.1 mph 7.6 mph 72% 0 in 0 W/m2
02:41 43.9 °F 35.4 °F 29.7 in NW 3.1 mph 7.6 mph 72% 0 in 0 W/m2
02:46 43.9 °F 35.4 °F 29.7 in NW 3.8 mph 10.7 mph 72% 0 in 0 W/m2
02:51 44.1 °F 35.6 °F 29.7 in NW 1.6 mph 13.6 mph 72% 0 in 0 W/m2
02:56 43.9 °F 35.4 °F 29.7 in WNW 6 mph 13.6 mph 72% 0 in 0 W/m2
03:01 44.2 °F 35.4 °F 29.7 in NW 2.2 mph 9.2 mph 71% 0 in 0 W/m2
03:06 44.6 °F 35.1 °F 29.7 in WNW 3.8 mph 9.8 mph 69% 0 in 0 W/m2
03:11 45.3 °F 35.1 °F 29.7 in West 3.1 mph 9.8 mph 67% 0 in 0 W/m2
03:16 45.3 °F 34.5 °F 29.7 in West 4.5 mph 7.6 mph 66% 0 in 0 W/m2
03:21 45.5 °F 34.9 °F 29.6 in WNW 5.4 mph 9.8 mph 66% 0 in 0 W/m2
03:26 45.7 °F 34.5 °F 29.6 in WNW 3.1 mph 9.8 mph 65% 0 in 0 W/m2
03:31 45.3 °F 34.3 °F 29.6 in WNW 3.1 mph 9.2 mph 65% 0 in 0 W/m2
03:36 44.6 °F 34 °F 29.6 in NW 8.3 mph 17.4 mph 66% 0 in 0 W/m2
03:41 44.4 °F 34.2 °F 29.6 in NW 1.6 mph 17.4 mph 67% 0 in 0 W/m2
03:46 44.2 °F 34.3 °F 29.6 in WNW 5.4 mph 14.5 mph 68% 0 in 0 W/m2
03:51 44.6 °F 34.3 °F 29.6 in WNW 8.3 mph 13.6 mph 67% 0 in 0 W/m2
03:56 45 °F 34.3 °F 29.6 in WNW 5.4 mph 13.6 mph 66% 0 in 0 W/m2
04:01 45 °F 34.3 °F 29.6 in WNW 3.8 mph 13 mph 66% 0 in 0 W/m2
04:06 44.8 °F 34.5 °F 29.6 in WNW 5.4 mph 13 mph 67% 0 in 0 W/m2
04:12 44.8 °F 34.9 °F 29.6 in WNW 4.5 mph 13 mph 68% 0 in 0 W/m2
04:17 44.6 °F 34.7 °F 29.6 in NW 6 mph 13 mph 68% 0 in 0 W/m2
04:22 44.4 °F 35.2 °F 29.6 in NW 3.8 mph 14.5 mph 70% 0 in 0 W/m2
04:27 44.2 °F 35.4 °F 29.6 in WNW 7.6 mph 17.4 mph 71% 0 in 0 W/m2
04:32 44.2 °F 35.8 °F 29.6 in WNW 6.9 mph 19.7 mph 72% 0 in 0 W/m2
04:37 44.1 °F 35.6 °F 29.6 in WNW 6 mph 19.7 mph 72% 0 in 0 W/m2
04:42 44.1 °F 35.6 °F 29.6 in WNW 4.5 mph 13.6 mph 72% 0 in 0 W/m2
04:47 43.7 °F 35.6 °F 29.6 in WNW 6 mph 13.6 mph 73% 0 in 0 W/m2
04:52 43.5 °F 35.4 °F 29.6 in WNW 6.9 mph 13 mph 73% 0 in 0 W/m2
04:57 43.5 °F 35.4 °F 29.6 in NW 3.8 mph 13.6 mph 73% 0 in 0 W/m2
05:02 43.5 °F 35.4 °F 29.6 in NW 6 mph 13.6 mph 73% 0 in 0 W/m2
05:07 43.3 °F 35.2 °F 29.6 in NW 6 mph 13 mph 73% 0 in 0 W/m2
05:12 43.3 °F 35.2 °F 29.6 in NW 6.9 mph 13 mph 73% 0 in 0 W/m2
05:17 43.5 °F 35.4 °F 29.6 in NW 8.3 mph 13 mph 73% 0 in 0 W/m2
05:22 43.3 °F 35.2 °F 29.6 in NW 7.6 mph 13.6 mph 73% 0 in 0 W/m2
05:27 43.2 °F 35.4 °F 29.6 in NW 8.3 mph 16.8 mph 74% 0 in 0 W/m2
05:32 42.8 °F 35.8 °F 29.6 in NNW 8.3 mph 16.8 mph 76% 0 in 0 W/m2
05:37 42.4 °F 36.3 °F 29.6 in NNW 6 mph 15.2 mph 79% 0.01 in 0 W/m2
05:42 42.3 °F 36.5 °F 29.6 in NNW 6 mph 13.6 mph 80% 0.01 in 0 W/m2
05:47 42.3 °F 36.9 °F 29.6 in NW 5.4 mph 9.8 mph 81% 0.01 in 0 W/m2
05:52 42.1 °F 37.2 °F 29.6 in NW 3.8 mph 9.8 mph 83% 0.01 in 0 W/m2
05:57 41.9 °F 37 °F 29.6 in NW 4.5 mph 9.8 mph 83% 0.01 in 0 W/m2
06:02 42.1 °F 37.2 °F 29.6 in NNW 4.5 mph 9.2 mph 83% 0.01 in 0 W/m2
06:07 42.1 °F 37.6 °F 29.6 in NW 6 mph 9.8 mph 84% 0.02 in 0 W/m2
06:13 41.7 °F 37.2 °F 29.6 in NW 6.9 mph 10.7 mph 84% 0.02 in 0 W/m2
06:18 41.7 °F 37.6 °F 29.6 in NW 3.8 mph 10.7 mph 85% 0.02 in 0 W/m2
06:23 41.5 °F 37.4 °F 29.6 in NW 6 mph 9.8 mph 85% 0.02 in 0 W/m2
06:28 41.5 °F 37.8 °F 29.6 in NW 3.8 mph 9.8 mph 86% 0.04 in 0 W/m2
06:33 41.5 °F 37.8 °F 29.6 in NW 3.8 mph 10.7 mph 86% 0.02 in 0 W/m2
06:38 41.4 °F 37.8 °F 29.6 in NNW 3.1 mph 10.7 mph 87% 0.02 in 0 W/m2
06:43 41.4 °F 37.8 °F 29.6 in NNW 3.1 mph 6.9 mph 87% 0.02 in 0 W/m2
06:48 41.4 °F 38.1 °F 29.6 in NNW 3.8 mph 6.9 mph 88% 0.02 in 0 W/m2
06:53 41.4 °F 38.1 °F 29.6 in North 3.1 mph 8.3 mph 88% 0.02 in 0 W/m2
06:58 41.4 °F 38.1 °F 29.6 in NNW 3.8 mph 8.3 mph 88% 0.02 in 0 W/m2
07:03 41.4 °F 38.1 °F 29.6 in North 5.4 mph 8.3 mph 88% 0.02 in 0 W/m2
07:08 41.5 °F 37.9 °F 29.6 in NNW 4.5 mph 8.3 mph 87% 0.01 in 0 W/m2
07:13 41.7 °F 38.1 °F 29.6 in NW 1.6 mph 7.6 mph 87% 0.01 in 0 W/m2
07:18 41.5 °F 37.8 °F 29.6 in NW 1.6 mph 6 mph 86% 0.01 in 0 W/m2
07:23 41.5 °F 37.8 °F 29.6 in NW 0.7 mph 4.5 mph 86% 0 in 0 W/m2
07:28 41.5 °F 37.8 °F 29.6 in Calm   3.8 mph 86% 0 in 0 W/m2
07:34 41.5 °F 37.8 °F 29.6 in Calm   3.1 mph 86% 0 in 0 W/m2
07:39 41.4 °F 37.6 °F 29.6 in WSW 0.7 mph 3.1 mph 86% 0 in 0 W/m2
07:44 41.5 °F 37.8 °F 29.6 in West 6 mph 9.2 mph 86% 0.01 in 0 W/m2
07:49 42.1 °F 38.1 °F 29.6 in WNW 4.5 mph 9.8 mph 86% 0.01 in 0 W/m2
07:54 42.1 °F 37.9 °F 29.6 in WNW 4.5 mph 9.8 mph 85% 0.02 in 0 W/m2
07:59 42.1 °F 37.9 °F 29.6 in NW 4.5 mph 9.2 mph 85% 0.02 in 0 W/m2
08:04 41.9 °F 37.9 °F 29.6 in NW 2.2 mph 8.3 mph 86% 0.04 in 1 W/m2
08:09 41.5 °F 37.9 °F 29.6 in NNW 2.2 mph 7.6 mph 87% 0.05 in 3 W/m2
08:14 41.5 °F 38.3 °F 29.6 in NNW 1.6 mph 4.5 mph 88% 0.06 in 5 W/m2
08:19 41.4 °F 38.5 °F 29.6 in NNW 3.1 mph 5.4 mph 89% 0.06 in 8 W/m2
08:24 41.4 °F 38.7 °F 29.6 in North 3.8 mph 6.9 mph 90% 0.06 in 11 W/m2
08:29 41.5 °F 38.8 °F 29.6 in NNE 3.8 mph 6.9 mph 90% 0.06 in 12 W/m2
08:34 41.7 °F 38.7 °F 29.6 in NNE 2.2 mph 6.9 mph 89% 0.06 in 10 W/m2
08:39 41.7 °F 38.7 °F 29.6 in North 0.7 mph 6 mph 89% 0.06 in 8 W/m2
08:44 41.7 °F 38.7 °F 29.6 in NNE 0.7 mph 4.5 mph 89% 0.05 in 7 W/m2
08:49 41.7 °F 38.7 °F 29.6 in NNE 3.1 mph 4.5 mph 89% 0.06 in 9 W/m2
08:54 41.7 °F 38.7 °F 29.6 in NNE 3.1 mph 5.4 mph 89% 0.05 in 10 W/m2
08:59 41.9 °F 38.8 °F 29.6 in NNE 0.7 mph 5.4 mph 89% 0.04 in 13 W/m2
09:04 41.9 °F 38.7 °F 29.6 in North 0.7 mph 5.4 mph 88% 0.02 in 15 W/m2
09:09 41.9 °F 38.8 °F 29.6 in WSW 3.1 mph 3.8 mph 89% 0.02 in 13 W/m2
09:14 41.7 °F 39 °F 29.6 in WSW 0.7 mph 3.8 mph 90% 0.01 in 12 W/m2
09:19 41.5 °F 38.8 °F 29.6 in WSW 3.1 mph 6.9 mph 90% 0.02 in 13 W/m2
09:24 41.7 °F 39 °F 29.6 in Calm   6.9 mph 90% 0.02 in 16 W/m2
09:29 41.9 °F 39.2 °F 29.6 in NW 6.9 mph 9.8 mph 90% 0.04 in 16 W/m2
09:34 42.4 °F 39 °F 29.6 in NW 3.8 mph 13.6 mph 88% 0.04 in 19 W/m2
09:39 42.4 °F 38.8 °F 29.6 in NW 3.1 mph 13.6 mph 87% 0.04 in 20 W/m2
09:44 42.3 °F 38.7 °F 29.6 in NNW 2.2 mph 6 mph 87% 0.05 in 20 W/m2
09:49 42.1 °F 38.8 °F 29.6 in NNW 2.2 mph 6 mph 88% 0.04 in 21 W/m2
09:54 42.1 °F 38.8 °F 29.6 in NNW 6 mph 6.9 mph 88% 0.05 in 23 W/m2
09:59 42.1 °F 39 °F 29.6 in NNW 3.8 mph 6.9 mph 89% 0.05 in 24 W/m2
10:04 42.1 °F 39 °F 29.6 in NW 3.8 mph 6.9 mph 89% 0.05 in 24 W/m2
10:09 42.1 °F 39 °F 29.6 in WNW 1.6 mph 6 mph 89% 0.06 in 27 W/m2
10:14 41.9 °F 39.2 °F 29.6 in NW 2.2 mph 6 mph 90% 0.06 in 29 W/m2
10:19 41.9 °F 39.2 °F 29.6 in NW 1.6 mph 5.4 mph 90% 0.06 in 28 W/m2
10:24 41.9 °F 39.6 °F 29.6 in NW 1.6 mph 4.5 mph 91% 0.06 in 29 W/m2
10:29 41.9 °F 39.7 °F 29.6 in NW 2.2 mph 4.5 mph 92% 0.06 in 30 W/m2
10:34 41.9 °F 39.7 °F 29.6 in NW 4.5 mph 6 mph 92% 0.07 in 32 W/m2
10:39 41.7 °F 39.7 °F 29.6 in NNW 6.9 mph 9.2 mph 93% 0.08 in 24 W/m2
10:44 41.5 °F 39.7 °F 29.6 in NNW 4.5 mph 9.2 mph 93% 0.09 in 26 W/m2
10:49 41.5 °F 39.7 °F 29.6 in NNW 3.1 mph 9.2 mph 93% 0.11 in 27 W/m2
10:54 41.4 °F 39.6 °F 29.6 in NNW 2.2 mph 6.9 mph 93% 0.11 in 26 W/m2
10:59 41.4 °F 39.6 °F 29.6 in NNW 3.8 mph 6.9 mph 93% 0.12 in 24 W/m2
11:04 41.4 °F 39.7 °F 29.6 in NNW 3.1 mph 6.9 mph 94% 0.13 in 22 W/m2
11:09 41.2 °F 39.6 °F 29.6 in NW 4.5 mph 8.3 mph 94% 0.13 in 24 W/m2
11:14 41 °F 39.4 °F 29.6 in NW 4.5 mph 8.3 mph 94% 0.14 in 35 W/m2
11:19 41 °F 39.4 °F 29.6 in NW 5.4 mph 8.3 mph 94% 0.13 in 59 W/m2
11:24 41 °F 39.4 °F 29.6 in NW 6 mph 9.2 mph 94% 0.13 in 68 W/m2
11:29 41.2 °F 39.6 °F 29.6 in NW 5.4 mph 9.2 mph 94% 0.12 in 68 W/m2
11:34 41.2 °F 39.6 °F 29.6 in NW 4.5 mph 8.3 mph 94% 0.11 in 66 W/m2
11:39 41.4 °F 39.7 °F 29.6 in NNW 1.6 mph 8.3 mph 94% 0.09 in 72 W/m2
11:44 41.5 °F 39.7 °F 29.6 in NNW 4.5 mph 6.9 mph 93% 0.07 in 80 W/m2
11:49 41.7 °F 39.7 °F 29.6 in NNW 3.8 mph 6.9 mph 93% 0.05 in 83 W/m2
11:54 41.7 °F 39.7 °F 29.6 in NNW 3.8 mph 7.6 mph 93% 0.05 in 86 W/m2
11:59 42.1 °F 40.3 °F 29.6 in NNW 3.8 mph 7.6 mph 93% 0.04 in 88 W/m2
12:04 42.3 °F 40.5 °F 29.6 in NNW 4.5 mph 9.2 mph 93% 0.04 in 83 W/m2
12:09 42.3 °F 40.1 °F 29.6 in NNW 3.8 mph 9.2 mph 92% 0.02 in 76 W/m2
12:14 42.3 °F 39.7 °F 29.6 in NNW 4.5 mph 9.2 mph 91% 0.01 in 69 W/m2
12:19 42.1 °F 39.4 °F 29.6 in NNW 4.5 mph 9.2 mph 90% 0.01 in 69 W/m2
12:24 42.1 °F 39.4 °F 29.6 in NNW 6 mph 9.2 mph 90% 0.01 in 71 W/m2
12:29 42.1 °F 39.6 °F 29.6 in NNW 6 mph 9.8 mph 91% 0.01 in 74 W/m2
12:34 42.1 °F 39.6 °F 29.6 in North 5.4 mph 9.8 mph 91% 0.01 in 77 W/m2
12:39 42.3 °F 39.7 °F 29.6 in North 4.5 mph 9.2 mph 91% 0.01 in 88 W/m2
12:44 42.4 °F 40.3 °F 29.6 in North 3.1 mph 8.3 mph 92% 0.02 in 98 W/m2
12:49 42.6 °F 40.5 °F 29.6 in North 3.1 mph 6 mph 92% 0.02 in 111 W/m2
12:54 43 °F 40.5 °F 29.6 in North 3.1 mph 6 mph 91% 0.02 in 118 W/m2
12:59 43.2 °F 41 °F 29.6 in North 2.2 mph 6 mph 92% 0.02 in 114 W/m2
13:04 43.5 °F 41.2 °F 29.6 in North 3.1 mph 5.4 mph 91% 0.01 in 107 W/m2
13:09 43.7 °F 41.2 °F 29.6 in North 1.6 mph 5.4 mph 91% 0.01 in 103 W/m2
13:14 44.2 °F 41.7 °F 29.6 in NNE 3.8 mph 5.4 mph 91% 0.01 in 100 W/m2
13:19 44.6 °F 41.5 °F 29.6 in North 2.2 mph 4.5 mph 89% 0.01 in 98 W/m2
13:24 45.1 °F 41.7 °F 29.6 in North 0.7 mph 4.5 mph 88% 0.01 in 98 W/m2
13:29 46.2 °F 43 °F 29.6 in NNE 1.6 mph 3.8 mph 88% 0.01 in 106 W/m2
13:34 47.1 °F 43.5 °F 29.6 in NE 0.7 mph 2.2 mph 87% 0.01 in 110 W/m2
13:39 48.2 °F 43.9 °F 29.6 in Calm   2.2 mph 85% 0.01 in 121 W/m2
13:44 50.5 °F 45.7 °F 29.6 in Calm   2.2 mph 83% 0 in 115 W/m2
13:49 51.1 °F 44.4 °F 29.6 in West 1.6 mph 3.8 mph 78% 0 in 117 W/m2
13:54 50.5 °F 43.3 °F 29.6 in West 1.6 mph 3.8 mph 76% 0 in 102 W/m2
13:59 49.6 °F 43.2 °F 29.6 in West 0.7 mph 3.8 mph 78% 0 in 108 W/m2
14:04 50.5 °F 43.9 °F 29.6 in WSW 0.7 mph 3.1 mph 78% 0 in 118 W/m2
14:09 52.3 °F 45 °F 29.6 in Calm   2.2 mph 76% 0 in 167 W/m2
14:14 53.2 °F 44.8 °F 29.6 in Calm   3.1 mph 73% 0 in 163 W/m2
14:19 51.8 °F 42.3 °F 29.6 in West 1.6 mph 3.1 mph 70% 0 in 166 W/m2
14:24 50.9 °F 42.3 °F 29.6 in West 1.6 mph 3.1 mph 72% 0 in 148 W/m2
14:29 50 °F 41.7 °F 29.6 in WNW 1.6 mph 3.1 mph 73% 0 in 131 W/m2
14:34 49.3 °F 41.4 °F 29.6 in WNW 2.2 mph 3.1 mph 74% 0 in 113 W/m2
14:39 48.7 °F 41.5 °F 29.6 in WSW 0.7 mph 3.8 mph 76% 0 in 87 W/m2
14:44 48.6 °F 41.4 °F 29.6 in WSW 1.6 mph 3.8 mph 76% 0 in 77 W/m2
14:49 48.4 °F 41.2 °F 29.6 in SW 1.6 mph 3.8 mph 76% 0 in 65 W/m2
14:54 48.2 °F 40.6 °F 29.6 in SSW 3.8 mph 4.5 mph 75% 0 in 74 W/m2
14:59 48 °F 41.5 °F 29.6 in South 3.1 mph 6 mph 78% 0 in 71 W/m2
15:04 47.8 °F 41.4 °F 29.6 in South 3.1 mph 6 mph 78% 0 in 64 W/m2
15:09 47.5 °F 41 °F 29.6 in SSW 3.1 mph 6 mph 78% 0 in 64 W/m2
15:14 47.5 °F 41.4 °F 29.6 in SW 3.8 mph 6 mph 79% 0 in 67 W/m2
15:19 47.5 °F 41.4 °F 29.6 in SW 2.2 mph 5.4 mph 79% 0 in 67 W/m2
15:36 48 °F 41.5 °F 29.6 in SW 3.8 mph 5.4 mph 78% 0 in 59 W/m2
15:41 47.7 °F 41.2 °F 29.6 in SW 5.4 mph 6 mph 78% 0 in 57 W/m2
15:46 47.5 °F 41 °F 29.6 in SW 2.2 mph 6 mph 78% 0 in 62 W/m2
15:51 47.7 °F 40.8 °F 29.6 in WSW 1.6 mph 6 mph 77% 0 in 55 W/m2
15:56 47.8 °F 41 °F 29.6 in WSW 1.6 mph 5.4 mph 77% 0 in 57 W/m2
16:01 47.7 °F 40.8 °F 29.7 in SW 2.2 mph 5.4 mph 77% 0 in 47 W/m2
16:06 47.5 °F 41 °F 29.7 in SW 3.1 mph 5.4 mph 78% 0 in 39 W/m2
16:11 47.5 °F 41 °F 29.7 in SW 5.4 mph 7.6 mph 78% 0 in 31 W/m2
16:16 47.5 °F 40.6 °F 29.7 in SW 6 mph 9.2 mph 77% 0 in 22 W/m2
16:21 47.5 °F 40.6 °F 29.7 in SW 9.2 mph 9.8 mph 77% 0 in 14 W/m2
16:26 47.5 °F 40.6 °F 29.7 in SW 7.6 mph 11.4 mph 77% 0 in 7 W/m2
16:31 47.5 °F 41 °F 29.7 in SW 6 mph 13.6 mph 78% 0 in 4 W/m2
16:36 48 °F 42.3 °F 29.7 in WSW 6.9 mph 13.6 mph 80% 0 in 2 W/m2
16:41 48.7 °F 43 °F 29.7 in SW 13.6 mph 19 mph 80% 0 in 2 W/m2
16:46 48.9 °F 43.3 °F 29.7 in SW 9.2 mph 19 mph 81% 0 in 2 W/m2
16:51 49.1 °F 43.9 °F 29.7 in SSW 3.1 mph 19 mph 82% 0 in 0 W/m2
16:56 49.3 °F 43.7 °F 29.7 in South 3.8 mph 12.1 mph 81% 0 in 0 W/m2
17:01 49.5 °F 43.9 °F 29.7 in SSE 2.2 mph 9.2 mph 81% 0 in 0 W/m2
17:06 49.6 °F 43.7 °F 29.7 in SSE 0.7 mph 6.9 mph 80% 0 in 0 W/m2
17:11 49.8 °F 43.9 °F 29.7 in East 4.5 mph 6 mph 80% 0 in 0 W/m2
17:16 49.3 °F 43.2 °F 29.7 in NE 4.5 mph 6.9 mph 79% 0 in 0 W/m2
17:21 47.7 °F 42.1 °F 29.7 in NNE 3.1 mph 6.9 mph 81% 0 in 0 W/m2
17:26 47.1 °F 41.5 °F 29.7 in NE 0.7 mph 6 mph 81% 0 in 0 W/m2
17:31 46.6 °F 41.4 °F 29.7 in NE 1.6 mph 4.5 mph 82% 0 in 0 W/m2
17:36 46.2 °F 41 °F 29.7 in East 3.1 mph 5.4 mph 82% 0 in 0 W/m2
17:46 48.6 °F 41.7 °F 29.7 in ESE 9.8 mph 14.5 mph 77% 0 in 0 W/m2
17:51 48.9 °F 41.7 °F 29.7 in ESE 5.4 mph 14.5 mph 76% 0 in 0 W/m2
17:56 48.7 °F 41.5 °F 29.7 in ESE 6 mph 14.5 mph 76% 0 in 0 W/m2
18:01 48.6 °F 41.4 °F 29.7 in ESE 2.2 mph 9.8 mph 76% 0 in 0 W/m2
18:06 48.4 °F 41.2 °F 29.7 in East 2.2 mph 9.8 mph 76% 0 in 0 W/m2
18:11 48 °F 41.2 °F 29.7 in ENE 3.1 mph 7.6 mph 77% 0 in 0 W/m2
18:16 47.8 °F 41 °F 29.7 in East 3.1 mph 6 mph 77% 0 in 0 W/m2
18:21 47.7 °F 41.2 °F 29.7 in East 1.6 mph 6 mph 78% 0 in 0 W/m2
18:26 47.5 °F 41 °F 29.7 in East 3.1 mph 5.4 mph 78% 0 in 0 W/m2
18:31 47.7 °F 41.5 °F 29.7 in Calm   6 mph 79% 0 in 0 W/m2
18:36 47.5 °F 41.4 °F 29.7 in East 0.7 mph 6 mph 79% 0 in 0 W/m2
18:41 47.7 °F 41.7 °F 29.7 in NE 3.8 mph 4.5 mph 80% 0 in 0 W/m2
18:46 48.2 °F 43.5 °F 29.7 in Calm   4.5 mph 84% 0 in 0 W/m2
18:51 48.4 °F 43.9 °F 29.7 in East 0.7 mph 4.5 mph 84% 0 in 0 W/m2
18:56 48.6 °F 44.1 °F 29.7 in SW 0.7 mph 2.2 mph 84% 0 in 0 W/m2
19:01 48.6 °F 44.1 °F 29.7 in WSW 6 mph 12.1 mph 84% 0 in 0 W/m2
19:06 49.1 °F 44.4 °F 29.7 in WSW 6 mph 12.1 mph 84% 0 in 0 W/m2
19:11 49.3 °F 44.8 °F 29.7 in WSW 4.5 mph 12.1 mph 84% 0 in 0 W/m2
19:16 49.5 °F 44.8 °F 29.7 in SW 5.4 mph 10.7 mph 84% 0 in 0 W/m2
19:21 49.5 °F 44.8 °F 29.7 in SW 6 mph 13.6 mph 84% 0 in 0 W/m2
19:26 49.5 °F 44.8 °F 29.7 in SW 6 mph 13.6 mph 84% 0 in 0 W/m2
19:31 49.3 °F 44.8 °F 29.7 in SSW 8.3 mph 13.6 mph 84% 0 in 0 W/m2
19:36 49.5 °F 44.8 °F 29.7 in SW 8.3 mph 13.6 mph 84% 0 in 0 W/m2
19:41 49.3 °F 44.2 °F 29.7 in WSW 10.7 mph 19 mph 83% 0 in 0 W/m2
19:46 49.3 °F 44.8 °F 29.7 in WSW 8.3 mph 19 mph 84% 0 in 0 W/m2
19:51 49.3 °F 44.8 °F 29.7 in SW 9.8 mph 15.9 mph 84% 0 in 0 W/m2
19:56 49.1 °F 44.8 °F 29.7 in SW 7.6 mph 13.6 mph 85% 0 in 0 W/m2
20:01 49.1 °F 44.8 °F 29.7 in SW 4.5 mph 11.4 mph 85% 0 in 0 W/m2
20:06 48.9 °F 44.2 °F 29.7 in WSW 2.2 mph 11.4 mph 84% 0 in 0 W/m2
20:11 48.7 °F 44.1 °F 29.7 in WSW 3.1 mph 9.8 mph 84% 0 in 0 W/m2
20:16 48.7 °F 44.1 °F 29.7 in WNW 3.8 mph 6 mph 84% 0 in 0 W/m2
20:21 46.9 °F 42.4 °F 29.7 in NW 3.8 mph 8.3 mph 84% 0 in 0 W/m2
20:26 46.2 °F 41.7 °F 29.7 in NW 3.8 mph 8.3 mph 84% 0 in 0 W/m2
20:31 46.2 °F 42.3 °F 29.7 in NW 3.8 mph 9.2 mph 86% 0 in 0 W/m2
20:36 46.4 °F 42.6 °F 29.7 in NW 7.6 mph 9.2 mph 87% 0 in 0 W/m2
20:41 46.2 °F 42.6 °F 29.7 in NW 3.8 mph 9.2 mph 87% 0 in 0 W/m2
20:46 46 °F 42.4 °F 29.7 in NW 3.8 mph 9.2 mph 87% 0 in 0 W/m2
20:51 46 °F 42.6 °F 29.7 in NNW 6 mph 10.7 mph 88% 0 in 0 W/m2
20:56 46 °F 42.6 °F 29.7 in NW 6 mph 10.7 mph 88% 0 in 0 W/m2
21:01 45.7 °F 42.6 °F 29.7 in NW 6 mph 10.7 mph 89% 0 in 0 W/m2
21:06 45.5 °F 42.4 °F 29.7 in NW 6 mph 10.7 mph 89% 0 in 0 W/m2
21:11 45.5 °F 42.6 °F 29.7 in WNW 3.8 mph 9.2 mph 90% 0 in 0 W/m2
21:16 45.9 °F 43.3 °F 29.7 in NNW 4.5 mph 10.7 mph 91% 0 in 0 W/m2
21:21 47.5 °F 45.3 °F 29.7 in WSW 12.1 mph 21.3 mph 92% 0 in 0 W/m2
21:26 47.8 °F 45.3 °F 29.7 in WSW 13.6 mph 23.5 mph 91% 0 in 0 W/m2
21:31 47.5 °F 44.4 °F 29.7 in WSW 15.9 mph 23.5 mph 89% 0.01 in 0 W/m2
21:35 47.1 °F 44.2 °F 29.7 in West 15.2 mph 23.5 mph 90% 0.02 in 0 W/m2
21:40 46.8 °F 44.2 °F 29.7 in WSW 11.4 mph 23.5 mph 91% 0.02 in 0 W/m2
21:45 46.4 °F 44.2 °F 29.8 in SW 10.7 mph 23.5 mph 92% 0.04 in 0 W/m2
21:50 46 °F 43.9 °F 29.7 in SW 9.2 mph 20.6 mph 92% 0.05 in 0 W/m2
21:55 46 °F 43.9 °F 29.7 in West 13 mph 19.7 mph 92% 0.05 in 0 W/m2
22:00 46 °F 43.9 °F 29.8 in West 8.3 mph 19.7 mph 92% 0.05 in 0 W/m2
22:05 45.9 °F 43.7 °F 29.8 in West 9.2 mph 19.7 mph 92% 0.05 in 0 W/m2
22:10 45.7 °F 43.5 °F 29.7 in WSW 9.2 mph 17.4 mph 92% 0.05 in 0 W/m2
22:15 45.7 °F 43.5 °F 29.8 in WSW 8.3 mph 16.8 mph 92% 0.05 in 0 W/m2
22:20 45.5 °F 43 °F 29.8 in WSW 9.2 mph 15.9 mph 91% 0.05 in 0 W/m2
22:25 45.5 °F 43 °F 29.8 in West 7.6 mph 17.4 mph 91% 0.07 in 0 W/m2
22:30 45.7 °F 43.5 °F 29.8 in West 5.4 mph 17.4 mph 92% 0.08 in 0 W/m2
22:35 46 °F 43.9 °F 29.8 in West 9.8 mph 17.4 mph 92% 0.09 in 0 W/m2
22:40 46 °F 43.9 °F 29.7 in West 7.6 mph 17.4 mph 92% 0.09 in 0 W/m2
22:45 46.2 °F 44.1 °F 29.8 in WSW 3.8 mph 15.9 mph 92% 0.09 in 0 W/m2
22:50 46.2 °F 44.1 °F 29.7 in West 1.6 mph 15.9 mph 92% 0.08 in 0 W/m2
22:55 46.2 °F 44.1 °F 29.8 in WSW 1.6 mph 6 mph 92% 0.09 in 0 W/m2
23:00 46 °F 43.9 °F 29.8 in NNW 3.8 mph 5.4 mph 92% 0.09 in 0 W/m2
23:05 45.3 °F 43.2 °F 29.8 in North 1.6 mph 6 mph 92% 0.09 in 0 W/m2
23:10 45 °F 42.8 °F 29.8 in North 4.5 mph 6 mph 92% 0.11 in 0 W/m2
23:15 44.6 °F 42.6 °F 29.8 in North 3.1 mph 9.8 mph 93% 0.11 in 0 W/m2
23:35 44.2 °F 43 °F 29.8 in NW 3.8 mph 5.4 mph 95% 0.08 in 0 W/m2
23:40 44.8 °F 43.3 °F 29.8 in WNW 7.6 mph 12.1 mph 95% 0.11 in 0 W/m2
23:45 46 °F 45.1 °F 29.8 in SW 12.1 mph 19.7 mph 97% 0.12 in 0 W/m2
23:50 46 °F 45.1 °F 29.8 in SW 9.8 mph 19.7 mph 97% 0.12 in 0 W/m2
Northern Hawkes Bay. New Zealand Historic Data
Compliments of Weather Underground - 2 mb